sensor_id;sensor_type;location;lat;lon;timestamp;temperature;humidity
56869;DHT22;42754;0.000;0.000;2023-04-30T00:01:55;9.10;99.90
56869;DHT22;42754;0.000;0.000;2023-04-30T00:04:21;9.10;99.90
56869;DHT22;42754;0.000;0.000;2023-04-30T00:06:47;9.00;99.90
56869;DHT22;42754;0.000;0.000;2023-04-30T00:09:13;8.90;99.90
56869;DHT22;42754;0.000;0.000;2023-04-30T00:11:39;8.90;99.90
56869;DHT22;42754;0.000;0.000;2023-04-30T00:14:04;9.00;99.90
56869;DHT22;42754;0.000;0.000;2023-04-30T00:16:30;9.00;99.90
56869;DHT22;42754;0.000;0.000;2023-04-30T00:18:55;8.90;99.90
56869;DHT22;42754;0.000;0.000;2023-04-30T00:21:21;8.90;99.90
56869;DHT22;42754;0.000;0.000;2023-04-30T00:23:46;8.80;99.90
56869;DHT22;42754;0.000;0.000;2023-04-30T00:26:12;8.70;99.90
56869;DHT22;42754;0.000;0.000;2023-04-30T00:28:38;8.70;99.90
56869;DHT22;42754;0.000;0.000;2023-04-30T00:31:03;8.60;99.90
56869;DHT22;42754;0.000;0.000;2023-04-30T00:33:31;8.60;99.90
56869;DHT22;42754;0.000;0.000;2023-04-30T00:35:56;8.50;99.90
56869;DHT22;42754;0.000;0.000;2023-04-30T00:38:22;8.50;99.90
56869;DHT22;42754;0.000;0.000;2023-04-30T00:40:48;8.40;99.90
56869;DHT22;42754;0.000;0.000;2023-04-30T00:43:15;8.40;99.90
56869;DHT22;42754;0.000;0.000;2023-04-30T00:45:40;8.40;99.90
56869;DHT22;42754;0.000;0.000;2023-04-30T00:48:06;8.40;99.90
56869;DHT22;42754;0.000;0.000;2023-04-30T00:50:31;8.40;99.90
56869;DHT22;42754;0.000;0.000;2023-04-30T00:53:00;8.40;99.90
56869;DHT22;42754;0.000;0.000;2023-04-30T00:55:25;8.40;99.90
56869;DHT22;42754;0.000;0.000;2023-04-30T00:57:52;8.40;99.90
56869;DHT22;42754;0.000;0.000;2023-04-30T01:00:18;8.40;99.90
56869;DHT22;42754;0.000;0.000;2023-04-30T01:02:44;8.20;99.90
56869;DHT22;42754;0.000;0.000;2023-04-30T01:05:10;8.30;99.90
56869;DHT22;42754;0.000;0.000;2023-04-30T01:07:35;8.20;99.90
56869;DHT22;42754;0.000;0.000;2023-04-30T01:10:03;8.20;99.90
56869;DHT22;42754;0.000;0.000;2023-04-30T01:15:18;8.10;99.90
56869;DHT22;42754;0.000;0.000;2023-04-30T01:17:57;8.10;99.90
56869;DHT22;42754;0.000;0.000;2023-04-30T01:20:25;8.00;99.90
56869;DHT22;42754;0.000;0.000;2023-04-30T01:25:43;7.80;99.90
56869;DHT22;42754;0.000;0.000;2023-04-30T01:30:39;7.80;99.90
56869;DHT22;42754;0.000;0.000;2023-04-30T01:33:05;7.80;99.90
56869;DHT22;42754;0.000;0.000;2023-04-30T01:35:36;7.80;99.90
56869;DHT22;42754;0.000;0.000;2023-04-30T01:38:09;7.80;99.90
56869;DHT22;42754;0.000;0.000;2023-04-30T01:40:50;7.80;99.90
56869;DHT22;42754;0.000;0.000;2023-04-30T01:48:34;7.50;99.90
56869;DHT22;42754;0.000;0.000;2023-04-30T01:51:18;7.50;99.90
56869;DHT22;42754;0.000;0.000;2023-04-30T01:53:46;7.50;99.90
56869;DHT22;42754;0.000;0.000;2023-04-30T01:56:16;7.50;99.90
56869;DHT22;42754;0.000;0.000;2023-04-30T01:58:43;7.30;99.90
56869;DHT22;42754;0.000;0.000;2023-04-30T02:01:30;7.40;99.90
56869;DHT22;42754;0.000;0.000;2023-04-30T02:03:56;7.40;99.90
56869;DHT22;42754;0.000;0.000;2023-04-30T02:06:22;7.40;99.90
56869;DHT22;42754;0.000;0.000;2023-04-30T02:08:52;7.40;99.90
56869;DHT22;42754;0.000;0.000;2023-04-30T02:11:18;7.40;99.90
56869;DHT22;42754;0.000;0.000;2023-04-30T02:13:44;7.40;99.90
56869;DHT22;42754;0.000;0.000;2023-04-30T02:16:09;7.30;99.90
56869;DHT22;42754;0.000;0.000;2023-04-30T02:18:35;7.20;99.90
56869;DHT22;42754;0.000;0.000;2023-04-30T02:21:00;7.30;99.90
56869;DHT22;42754;0.000;0.000;2023-04-30T02:23:26;7.20;99.90
56869;DHT22;42754;0.000;0.000;2023-04-30T02:25:52;7.10;99.90
56869;DHT22;42754;0.000;0.000;2023-04-30T02:28:18;7.30;99.90
56869;DHT22;42754;0.000;0.000;2023-04-30T02:30:45;7.30;99.90
56869;DHT22;42754;0.000;0.000;2023-04-30T02:33:11;7.30;99.90
56869;DHT22;42754;0.000;0.000;2023-04-30T02:35:39;7.30;99.90
56869;DHT22;42754;0.000;0.000;2023-04-30T02:38:05;7.20;99.90
56869;DHT22;42754;0.000;0.000;2023-04-30T02:40:33;7.20;99.90
56869;DHT22;42754;0.000;0.000;2023-04-30T02:42:58;7.30;99.90
56869;DHT22;42754;0.000;0.000;2023-04-30T02:45:27;7.20;99.90
56869;DHT22;42754;0.000;0.000;2023-04-30T02:47:53;7.10;99.90
56869;DHT22;42754;0.000;0.000;2023-04-30T02:50:19;7.10;99.90
56869;DHT22;42754;0.000;0.000;2023-04-30T02:52:45;7.10;99.90
56869;DHT22;42754;0.000;0.000;2023-04-30T02:55:11;7.10;99.90
56869;DHT22;42754;0.000;0.000;2023-04-30T02:57:37;7.10;99.90
56869;DHT22;42754;0.000;0.000;2023-04-30T03:00:03;7.00;99.90
56869;DHT22;42754;0.000;0.000;2023-04-30T03:02:29;7.00;99.90
56869;DHT22;42754;0.000;0.000;2023-04-30T03:04:54;7.00;99.90
56869;DHT22;42754;0.000;0.000;2023-04-30T03:07:21;6.90;99.90
56869;DHT22;42754;0.000;0.000;2023-04-30T03:09:46;6.80;99.90
56869;DHT22;42754;0.000;0.000;2023-04-30T03:12:12;6.70;99.90
56869;DHT22;42754;0.000;0.000;2023-04-30T03:14:39;6.70;99.90
56869;DHT22;42754;0.000;0.000;2023-04-30T03:17:04;6.60;99.90
56869;DHT22;42754;0.000;0.000;2023-04-30T03:19:30;6.60;99.90
56869;DHT22;42754;0.000;0.000;2023-04-30T03:21:56;6.70;99.90
56869;DHT22;42754;0.000;0.000;2023-04-30T03:24:21;6.70;99.90
56869;DHT22;42754;0.000;0.000;2023-04-30T03:26:47;6.70;99.90
56869;DHT22;42754;0.000;0.000;2023-04-30T03:29:12;6.80;99.90
56869;DHT22;42754;0.000;0.000;2023-04-30T03:31:39;6.60;99.90
56869;DHT22;42754;0.000;0.000;2023-04-30T03:34:05;6.70;99.90
56869;DHT22;42754;0.000;0.000;2023-04-30T03:36:31;6.60;99.90
56869;DHT22;42754;0.000;0.000;2023-04-30T03:38:58;6.60;99.90
56869;DHT22;42754;0.000;0.000;2023-04-30T03:41:26;6.70;99.90
56869;DHT22;42754;0.000;0.000;2023-04-30T03:43:51;6.60;99.90
56869;DHT22;42754;0.000;0.000;2023-04-30T03:46:17;6.60;99.90
56869;DHT22;42754;0.000;0.000;2023-04-30T03:48:42;6.40;99.90
56869;DHT22;42754;0.000;0.000;2023-04-30T03:51:09;6.40;99.90
56869;DHT22;42754;0.000;0.000;2023-04-30T03:53:34;6.40;99.90
56869;DHT22;42754;0.000;0.000;2023-04-30T03:56:00;6.40;99.90
56869;DHT22;42754;0.000;0.000;2023-04-30T03:58:26;6.40;99.90
56869;DHT22;42754;0.000;0.000;2023-04-30T04:00:52;6.40;99.90
56869;DHT22;42754;0.000;0.000;2023-04-30T04:03:18;6.30;99.90
56869;DHT22;42754;0.000;0.000;2023-04-30T04:05:44;6.30;99.90
56869;DHT22;42754;0.000;0.000;2023-04-30T04:08:11;6.30;99.90
56869;DHT22;42754;0.000;0.000;2023-04-30T04:10:37;6.30;99.90
56869;DHT22;42754;0.000;0.000;2023-04-30T04:13:03;6.30;99.90
56869;DHT22;42754;0.000;0.000;2023-04-30T04:15:28;6.30;99.90
56869;DHT22;42754;0.000;0.000;2023-04-30T04:17:54;6.30;99.90
56869;DHT22;42754;0.000;0.000;2023-04-30T04:20:19;6.40;99.90
56869;DHT22;42754;0.000;0.000;2023-04-30T04:22:45;6.40;99.90
56869;DHT22;42754;0.000;0.000;2023-04-30T04:25:10;6.30;99.90
56869;DHT22;42754;0.000;0.000;2023-04-30T04:27:39;6.30;99.90
56869;DHT22;42754;0.000;0.000;2023-04-30T04:30:04;6.30;99.90
56869;DHT22;42754;0.000;0.000;2023-04-30T04:32:30;6.30;99.90
56869;DHT22;42754;0.000;0.000;2023-04-30T04:34:57;6.30;99.90
56869;DHT22;42754;0.000;0.000;2023-04-30T04:37:23;6.30;99.90
56869;DHT22;42754;0.000;0.000;2023-04-30T04:39:49;6.30;99.90
56869;DHT22;42754;0.000;0.000;2023-04-30T04:42:16;6.60;99.90
56869;DHT22;42754;0.000;0.000;2023-04-30T04:44:42;7.10;99.90
56869;DHT22;42754;0.000;0.000;2023-04-30T04:47:08;7.30;99.90
56869;DHT22;42754;0.000;0.000;2023-04-30T04:49:34;7.20;99.90
56869;DHT22;42754;0.000;0.000;2023-04-30T04:52:02;7.20;99.90
56869;DHT22;42754;0.000;0.000;2023-04-30T04:54:28;7.90;99.90
56869;DHT22;42754;0.000;0.000;2023-04-30T04:56:53;8.50;99.90
56869;DHT22;42754;0.000;0.000;2023-04-30T04:59:19;8.70;99.90
56869;DHT22;42754;0.000;0.000;2023-04-30T05:01:45;8.60;99.90
56869;DHT22;42754;0.000;0.000;2023-04-30T05:04:10;8.40;99.90
56869;DHT22;42754;0.000;0.000;2023-04-30T05:06:38;8.40;99.90
56869;DHT22;42754;0.000;0.000;2023-04-30T05:09:04;8.40;99.90
56869;DHT22;42754;0.000;0.000;2023-04-30T05:11:33;8.50;99.90
56869;DHT22;42754;0.000;0.000;2023-04-30T05:13:58;8.50;99.90
56869;DHT22;42754;0.000;0.000;2023-04-30T05:16:24;8.60;99.90
56869;DHT22;42754;0.000;0.000;2023-04-30T05:18:51;8.90;99.90
56869;DHT22;42754;0.000;0.000;2023-04-30T05:21:16;9.10;99.90
56869;DHT22;42754;0.000;0.000;2023-04-30T05:23:42;9.20;99.90
56869;DHT22;42754;0.000;0.000;2023-04-30T05:26:08;9.40;99.90
56869;DHT22;42754;0.000;0.000;2023-04-30T05:28:36;9.60;99.90
56869;DHT22;42754;0.000;0.000;2023-04-30T05:31:01;9.70;99.90
56869;DHT22;42754;0.000;0.000;2023-04-30T05:33:27;9.90;99.90
56869;DHT22;42754;0.000;0.000;2023-04-30T05:35:54;10.10;99.90
56869;DHT22;42754;0.000;0.000;2023-04-30T05:38:21;10.00;99.90
56869;DHT22;42754;0.000;0.000;2023-04-30T05:40:46;10.10;99.90
56869;DHT22;42754;0.000;0.000;2023-04-30T05:43:13;10.30;99.90
56869;DHT22;42754;0.000;0.000;2023-04-30T05:45:38;10.40;99.90
56869;DHT22;42754;0.000;0.000;2023-04-30T05:48:04;10.60;99.90
56869;DHT22;42754;0.000;0.000;2023-04-30T05:50:30;10.70;99.90
56869;DHT22;42754;0.000;0.000;2023-04-30T05:53:02;10.90;99.90
56869;DHT22;42754;0.000;0.000;2023-04-30T05:55:28;11.00;99.90
56869;DHT22;42754;0.000;0.000;2023-04-30T05:57:53;11.40;99.90
56869;DHT22;42754;0.000;0.000;2023-04-30T06:00:19;11.20;99.90
56869;DHT22;42754;0.000;0.000;2023-04-30T06:02:44;11.20;99.90
56869;DHT22;42754;0.000;0.000;2023-04-30T06:05:10;11.40;99.90
56869;DHT22;42754;0.000;0.000;2023-04-30T06:07:36;11.60;99.90
56869;DHT22;42754;0.000;0.000;2023-04-30T06:10:03;11.70;99.90
56869;DHT22;42754;0.000;0.000;2023-04-30T06:12:28;11.80;99.90
56869;DHT22;42754;0.000;0.000;2023-04-30T06:14:56;11.70;99.90
56869;DHT22;42754;0.000;0.000;2023-04-30T06:17:22;11.90;99.90
56869;DHT22;42754;0.000;0.000;2023-04-30T06:20:00;12.20;99.90
56869;DHT22;42754;0.000;0.000;2023-04-30T06:22:31;12.30;99.90
56869;DHT22;42754;0.000;0.000;2023-04-30T06:24:58;12.50;99.90
56869;DHT22;42754;0.000;0.000;2023-04-30T06:27:24;12.60;99.90
56869;DHT22;42754;0.000;0.000;2023-04-30T06:29:51;12.60;99.90
56869;DHT22;42754;0.000;0.000;2023-04-30T06:32:17;12.60;99.90
56869;DHT22;42754;0.000;0.000;2023-04-30T06:34:42;12.80;99.90
56869;DHT22;42754;0.000;0.000;2023-04-30T06:37:08;13.10;99.90
56869;DHT22;42754;0.000;0.000;2023-04-30T06:39:33;13.10;99.90
56869;DHT22;42754;0.000;0.000;2023-04-30T06:41:59;13.10;99.90
56869;DHT22;42754;0.000;0.000;2023-04-30T06:44:25;13.00;99.90
56869;DHT22;42754;0.000;0.000;2023-04-30T06:46:50;13.10;99.90
56869;DHT22;42754;0.000;0.000;2023-04-30T06:49:16;13.30;99.90
56869;DHT22;42754;0.000;0.000;2023-04-30T06:51:42;13.00;99.90
56869;DHT22;42754;0.000;0.000;2023-04-30T06:54:08;13.10;99.90
56869;DHT22;42754;0.000;0.000;2023-04-30T06:56:33;13.10;99.90
56869;DHT22;42754;0.000;0.000;2023-04-30T06:58:59;12.90;99.90
56869;DHT22;42754;0.000;0.000;2023-04-30T07:01:24;12.70;99.90
56869;DHT22;42754;0.000;0.000;2023-04-30T07:03:50;12.90;99.90
56869;DHT22;42754;0.000;0.000;2023-04-30T07:06:17;13.00;99.90
56869;DHT22;42754;0.000;0.000;2023-04-30T07:08:42;13.00;99.90
56869;DHT22;42754;0.000;0.000;2023-04-30T07:13:38;12.90;99.90
56869;DHT22;42754;0.000;0.000;2023-04-30T07:16:05;12.90;99.90
56869;DHT22;42754;0.000;0.000;2023-04-30T07:18:32;12.90;99.90
56869;DHT22;42754;0.000;0.000;2023-04-30T07:21:00;12.90;99.90
56869;DHT22;42754;0.000;0.000;2023-04-30T07:23:25;13.00;99.90
56869;DHT22;42754;0.000;0.000;2023-04-30T07:25:52;12.90;99.90
56869;DHT22;42754;0.000;0.000;2023-04-30T07:28:17;13.00;99.90
56869;DHT22;42754;0.000;0.000;2023-04-30T07:30:48;13.00;99.90
56869;DHT22;42754;0.000;0.000;2023-04-30T07:33:14;12.80;99.90
56869;DHT22;42754;0.000;0.000;2023-04-30T07:35:41;13.20;99.90
56869;DHT22;42754;0.000;0.000;2023-04-30T07:38:07;13.30;99.90
56869;DHT22;42754;0.000;0.000;2023-04-30T07:40:34;13.40;99.90
56869;DHT22;42754;0.000;0.000;2023-04-30T07:43:00;13.30;99.90
56869;DHT22;42754;0.000;0.000;2023-04-30T07:45:26;13.20;99.90
56869;DHT22;42754;0.000;0.000;2023-04-30T07:47:52;13.40;99.90
56869;DHT22;42754;0.000;0.000;2023-04-30T07:50:17;13.20;99.90
56869;DHT22;42754;0.000;0.000;2023-04-30T07:52:43;13.20;99.90
56869;DHT22;42754;0.000;0.000;2023-04-30T07:55:09;13.30;99.90
56869;DHT22;42754;0.000;0.000;2023-04-30T07:57:34;13.50;99.90
56869;DHT22;42754;0.000;0.000;2023-04-30T08:00:00;13.60;99.90
56869;DHT22;42754;0.000;0.000;2023-04-30T08:02:25;13.50;99.90
56869;DHT22;42754;0.000;0.000;2023-04-30T08:04:51;13.20;99.90
56869;DHT22;42754;0.000;0.000;2023-04-30T08:07:17;13.40;99.90
56869;DHT22;42754;0.000;0.000;2023-04-30T08:09:42;13.70;99.90
56869;DHT22;42754;0.000;0.000;2023-04-30T08:12:08;14.30;99.90
56869;DHT22;42754;0.000;0.000;2023-04-30T08:14:34;14.30;99.90
56869;DHT22;42754;0.000;0.000;2023-04-30T08:17:01;14.40;99.90
56869;DHT22;42754;0.000;0.000;2023-04-30T08:19:27;14.50;99.90
56869;DHT22;42754;0.000;0.000;2023-04-30T08:21:53;14.60;99.90
56869;DHT22;42754;0.000;0.000;2023-04-30T08:24:18;14.70;99.90
56869;DHT22;42754;0.000;0.000;2023-04-30T08:26:45;14.80;99.90
56869;DHT22;42754;0.000;0.000;2023-04-30T08:29:10;14.90;99.90
56869;DHT22;42754;0.000;0.000;2023-04-30T08:31:36;15.20;99.90
56869;DHT22;42754;0.000;0.000;2023-04-30T08:34:01;15.70;99.90
56869;DHT22;42754;0.000;0.000;2023-04-30T08:36:27;16.50;99.90
56869;DHT22;42754;0.000;0.000;2023-04-30T08:38:52;16.40;99.90
56869;DHT22;42754;0.000;0.000;2023-04-30T08:41:19;16.30;99.90
56869;DHT22;42754;0.000;0.000;2023-04-30T08:43:46;16.70;99.90
56869;DHT22;42754;0.000;0.000;2023-04-30T08:46:12;16.80;99.90
56869;DHT22;42754;0.000;0.000;2023-04-30T08:48:39;16.90;99.90
56869;DHT22;42754;0.000;0.000;2023-04-30T08:51:05;17.80;99.90
56869;DHT22;42754;0.000;0.000;2023-04-30T08:53:33;18.50;99.90
56869;DHT22;42754;0.000;0.000;2023-04-30T08:55:59;19.30;99.90
56869;DHT22;42754;0.000;0.000;2023-04-30T08:58:25;18.80;99.40
56869;DHT22;42754;0.000;0.000;2023-04-30T09:00:50;19.50;98.30
56869;DHT22;42754;0.000;0.000;2023-04-30T09:03:16;20.00;98.20
56869;DHT22;42754;0.000;0.000;2023-04-30T09:05:41;19.80;98.60
56869;DHT22;42754;0.000;0.000;2023-04-30T09:08:07;20.30;97.30
56869;DHT22;42754;0.000;0.000;2023-04-30T09:10:33;20.30;98.20
56869;DHT22;42754;0.000;0.000;2023-04-30T09:13:01;20.20;96.90
56869;DHT22;42754;0.000;0.000;2023-04-30T09:15:27;20.80;97.00
56869;DHT22;42754;0.000;0.000;2023-04-30T09:18:15;21.00;95.90
56869;DHT22;42754;0.000;0.000;2023-04-30T09:20:58;21.10;95.80
56869;DHT22;42754;0.000;0.000;2023-04-30T09:23:25;21.20;95.40
56869;DHT22;42754;0.000;0.000;2023-04-30T09:25:50;20.60;95.60
56869;DHT22;42754;0.000;0.000;2023-04-30T09:28:16;20.80;95.00
56869;DHT22;42754;0.000;0.000;2023-04-30T09:30:41;21.30;95.40
56869;DHT22;42754;0.000;0.000;2023-04-30T09:33:07;21.10;94.10
56869;DHT22;42754;0.000;0.000;2023-04-30T09:35:34;20.70;94.90
56869;DHT22;42754;0.000;0.000;2023-04-30T09:38:00;20.20;94.30
56869;DHT22;42754;0.000;0.000;2023-04-30T09:40:34;20.00;94.90
56869;DHT22;42754;0.000;0.000;2023-04-30T09:42:59;20.70;94.80
56869;DHT22;42754;0.000;0.000;2023-04-30T09:45:25;21.70;93.70
56869;DHT22;42754;0.000;0.000;2023-04-30T09:47:53;22.00;93.30
56869;DHT22;42754;0.000;0.000;2023-04-30T09:50:19;21.10;92.80
56869;DHT22;42754;0.000;0.000;2023-04-30T09:52:52;20.50;93.60
56869;DHT22;42754;0.000;0.000;2023-04-30T09:55:18;21.20;94.40
56869;DHT22;42754;0.000;0.000;2023-04-30T09:57:44;21.20;93.60
56869;DHT22;42754;0.000;0.000;2023-04-30T10:00:09;21.00;93.70
56869;DHT22;42754;0.000;0.000;2023-04-30T10:02:36;21.50;94.10
56869;DHT22;42754;0.000;0.000;2023-04-30T10:05:02;21.90;92.70
56869;DHT22;42754;0.000;0.000;2023-04-30T10:07:30;21.70;92.90
56869;DHT22;42754;0.000;0.000;2023-04-30T10:10:06;21.00;92.00
56869;DHT22;42754;0.000;0.000;2023-04-30T10:17:36;22.60;93.80
56869;DHT22;42754;0.000;0.000;2023-04-30T10:20:05;22.60;92.90
56869;DHT22;42754;0.000;0.000;2023-04-30T10:22:32;22.00;93.50
56869;DHT22;42754;0.000;0.000;2023-04-30T10:24:58;22.50;92.50
56869;DHT22;42754;0.000;0.000;2023-04-30T10:27:24;22.10;93.40
56869;DHT22;42754;0.000;0.000;2023-04-30T10:29:50;21.50;92.30
56869;DHT22;42754;0.000;0.000;2023-04-30T10:32:16;21.10;93.40
56869;DHT22;42754;0.000;0.000;2023-04-30T10:39:54;21.20;92.40
56869;DHT22;42754;0.000;0.000;2023-04-30T10:42:20;21.50;92.70
56869;DHT22;42754;0.000;0.000;2023-04-30T10:44:45;21.70;92.60
56869;DHT22;42754;0.000;0.000;2023-04-30T10:47:11;21.90;92.80
56869;DHT22;42754;0.000;0.000;2023-04-30T10:49:36;22.50;93.00
56869;DHT22;42754;0.000;0.000;2023-04-30T10:52:03;22.60;93.00
56869;DHT22;42754;0.000;0.000;2023-04-30T10:54:30;22.60;92.60
56869;DHT22;42754;0.000;0.000;2023-04-30T10:59:35;22.10;92.40
56869;DHT22;42754;0.000;0.000;2023-04-30T11:02:02;21.70;91.70
56869;DHT22;42754;0.000;0.000;2023-04-30T11:04:28;22.10;92.90
56869;DHT22;42754;0.000;0.000;2023-04-30T11:07:06;21.90;92.50
56869;DHT22;42754;0.000;0.000;2023-04-30T11:09:38;21.60;92.00
56869;DHT22;42754;0.000;0.000;2023-04-30T11:12:13;22.00;93.30
56869;DHT22;42754;0.000;0.000;2023-04-30T11:14:43;22.30;91.50
56869;DHT22;42754;0.000;0.000;2023-04-30T11:17:09;21.80;92.50
56869;DHT22;42754;0.000;0.000;2023-04-30T11:19:37;22.40;92.00
56869;DHT22;42754;0.000;0.000;2023-04-30T11:24:48;21.80;92.00
56869;DHT22;42754;0.000;0.000;2023-04-30T11:27:24;21.80;91.70
56869;DHT22;42754;0.000;0.000;2023-04-30T11:29:50;21.70;91.80
56869;DHT22;42754;0.000;0.000;2023-04-30T11:32:20;22.50;92.70
56869;DHT22;42754;0.000;0.000;2023-04-30T11:34:46;22.30;91.30
56869;DHT22;42754;0.000;0.000;2023-04-30T11:37:12;22.20;91.70
56869;DHT22;42754;0.000;0.000;2023-04-30T11:39:39;21.80;91.40
56869;DHT22;42754;0.000;0.000;2023-04-30T11:42:06;21.70;92.80
56869;DHT22;42754;0.000;0.000;2023-04-30T11:44:32;21.70;92.30
56869;DHT22;42754;0.000;0.000;2023-04-30T11:46:58;22.10;92.50
56869;DHT22;42754;0.000;0.000;2023-04-30T11:49:23;22.60;92.50
56869;DHT22;42754;0.000;0.000;2023-04-30T11:51:49;22.80;92.00
56869;DHT22;42754;0.000;0.000;2023-04-30T11:54:15;22.50;91.60
56869;DHT22;42754;0.000;0.000;2023-04-30T11:56:46;22.70;92.30
56869;DHT22;42754;0.000;0.000;2023-04-30T11:59:15;23.20;92.10
56869;DHT22;42754;0.000;0.000;2023-04-30T12:01:41;23.00;91.20
56869;DHT22;42754;0.000;0.000;2023-04-30T12:04:07;21.90;91.70
56869;DHT22;42754;0.000;0.000;2023-04-30T12:06:33;22.20;92.00
56869;DHT22;42754;0.000;0.000;2023-04-30T12:09:02;22.80;92.10
56869;DHT22;42754;0.000;0.000;2023-04-30T12:11:33;22.60;92.20
56869;DHT22;42754;0.000;0.000;2023-04-30T12:14:00;22.70;91.20
56869;DHT22;42754;0.000;0.000;2023-04-30T12:16:50;21.90;91.20
56869;DHT22;42754;0.000;0.000;2023-04-30T12:19:22;21.90;91.80
56869;DHT22;42754;0.000;0.000;2023-04-30T12:21:49;21.70;91.70
56869;DHT22;42754;0.000;0.000;2023-04-30T12:24:17;21.40;91.80
56869;DHT22;42754;0.000;0.000;2023-04-30T12:26:43;21.40;92.20
56869;DHT22;42754;0.000;0.000;2023-04-30T12:29:09;22.20;92.60
56869;DHT22;42754;0.000;0.000;2023-04-30T12:31:36;22.20;91.60
56869;DHT22;42754;0.000;0.000;2023-04-30T12:34:06;21.70;91.40
56869;DHT22;42754;0.000;0.000;2023-04-30T12:36:32;21.70;91.70
56869;DHT22;42754;0.000;0.000;2023-04-30T12:39:04;21.90;91.90
56869;DHT22;42754;0.000;0.000;2023-04-30T12:41:34;22.10;92.10
56869;DHT22;42754;0.000;0.000;2023-04-30T12:46:45;21.40;91.70
56869;DHT22;42754;0.000;0.000;2023-04-30T12:49:11;21.20;92.40
56869;DHT22;42754;0.000;0.000;2023-04-30T12:51:38;21.50;91.70
56869;DHT22;42754;0.000;0.000;2023-04-30T12:54:07;21.10;92.40
56869;DHT22;42754;0.000;0.000;2023-04-30T12:56:33;21.50;91.60
56869;DHT22;42754;0.000;0.000;2023-04-30T12:58:58;21.30;91.90
56869;DHT22;42754;0.000;0.000;2023-04-30T13:01:24;21.10;92.30
56869;DHT22;42754;0.000;0.000;2023-04-30T13:03:50;21.40;92.20
56869;DHT22;42754;0.000;0.000;2023-04-30T13:06:16;21.60;91.90
56869;DHT22;42754;0.000;0.000;2023-04-30T13:08:42;21.90;92.50
56869;DHT22;42754;0.000;0.000;2023-04-30T13:11:08;21.90;91.70
56869;DHT22;42754;0.000;0.000;2023-04-30T13:13:34;21.70;91.20
56869;DHT22;42754;0.000;0.000;2023-04-30T13:15:59;21.40;91.10
56869;DHT22;42754;0.000;0.000;2023-04-30T13:18:25;21.40;91.30
56869;DHT22;42754;0.000;0.000;2023-04-30T13:20:51;21.20;91.70
56869;DHT22;42754;0.000;0.000;2023-04-30T13:23:16;21.30;90.50
56869;DHT22;42754;0.000;0.000;2023-04-30T13:25:42;21.30;91.20
56869;DHT22;42754;0.000;0.000;2023-04-30T13:28:08;21.40;91.10
56869;DHT22;42754;0.000;0.000;2023-04-30T13:30:35;21.20;91.40
56869;DHT22;42754;0.000;0.000;2023-04-30T13:33:00;20.70;92.00
56869;DHT22;42754;0.000;0.000;2023-04-30T13:35:27;20.10;92.90
56869;DHT22;42754;0.000;0.000;2023-04-30T13:37:53;20.30;92.60
56869;DHT22;42754;0.000;0.000;2023-04-30T13:40:19;19.80;92.50
56869;DHT22;42754;0.000;0.000;2023-04-30T13:42:45;20.00;91.90
56869;DHT22;42754;0.000;0.000;2023-04-30T13:45:11;20.20;91.70
56869;DHT22;42754;0.000;0.000;2023-04-30T13:47:37;20.50;91.80
56869;DHT22;42754;0.000;0.000;2023-04-30T13:50:04;20.60;91.00
56869;DHT22;42754;0.000;0.000;2023-04-30T13:52:30;20.50;91.40
56869;DHT22;42754;0.000;0.000;2023-04-30T13:54:56;20.80;91.80
56869;DHT22;42754;0.000;0.000;2023-04-30T13:57:22;20.80;91.50
56869;DHT22;42754;0.000;0.000;2023-04-30T13:59:47;20.90;91.70
56869;DHT22;42754;0.000;0.000;2023-04-30T14:02:13;20.50;91.10
56869;DHT22;42754;0.000;0.000;2023-04-30T14:04:39;20.30;91.20
56869;DHT22;42754;0.000;0.000;2023-04-30T14:07:04;20.20;91.20
56869;DHT22;42754;0.000;0.000;2023-04-30T14:09:30;20.40;91.20
56869;DHT22;42754;0.000;0.000;2023-04-30T14:11:55;20.60;91.80
56869;DHT22;42754;0.000;0.000;2023-04-30T14:14:23;20.90;92.00
56869;DHT22;42754;0.000;0.000;2023-04-30T14:16:49;20.80;90.30
56869;DHT22;42754;0.000;0.000;2023-04-30T14:19:15;19.90;91.00
56869;DHT22;42754;0.000;0.000;2023-04-30T14:21:40;19.50;91.70
56869;DHT22;42754;0.000;0.000;2023-04-30T14:24:08;19.10;91.60
56869;DHT22;42754;0.000;0.000;2023-04-30T14:26:34;19.00;91.60
56869;DHT22;42754;0.000;0.000;2023-04-30T14:29:06;19.40;91.80
56869;DHT22;42754;0.000;0.000;2023-04-30T14:31:32;20.20;91.80
56869;DHT22;42754;0.000;0.000;2023-04-30T14:33:59;20.50;91.00
56869;DHT22;42754;0.000;0.000;2023-04-30T14:36:27;20.40;91.20
56869;DHT22;42754;0.000;0.000;2023-04-30T14:38:54;20.50;91.20
56869;DHT22;42754;0.000;0.000;2023-04-30T14:41:19;20.40;91.60
56869;DHT22;42754;0.000;0.000;2023-04-30T14:43:47;20.70;92.10
56869;DHT22;42754;0.000;0.000;2023-04-30T14:46:13;20.40;91.50
56869;DHT22;42754;0.000;0.000;2023-04-30T14:48:39;20.10;92.00
56869;DHT22;42754;0.000;0.000;2023-04-30T14:51:05;19.60;91.20
56869;DHT22;42754;0.000;0.000;2023-04-30T14:53:33;19.10;91.30
56869;DHT22;42754;0.000;0.000;2023-04-30T14:55:59;19.10;91.90
56869;DHT22;42754;0.000;0.000;2023-04-30T14:58:25;18.90;92.20
56869;DHT22;42754;0.000;0.000;2023-04-30T15:00:51;18.80;92.50
56869;DHT22;42754;0.000;0.000;2023-04-30T15:03:18;18.80;92.40
56869;DHT22;42754;0.000;0.000;2023-04-30T15:05:44;19.00;92.80
56869;DHT22;42754;0.000;0.000;2023-04-30T15:08:09;19.50;92.40
56869;DHT22;42754;0.000;0.000;2023-04-30T15:10:36;20.00;92.50
56869;DHT22;42754;0.000;0.000;2023-04-30T15:13:02;19.80;91.80
56869;DHT22;42754;0.000;0.000;2023-04-30T15:15:36;19.60;91.90
56869;DHT22;42754;0.000;0.000;2023-04-30T15:18:02;19.40;92.40
56869;DHT22;42754;0.000;0.000;2023-04-30T15:20:30;19.10;92.00
56869;DHT22;42754;0.000;0.000;2023-04-30T15:22:56;19.00;92.30
56869;DHT22;42754;0.000;0.000;2023-04-30T15:25:22;18.90;92.70
56869;DHT22;42754;0.000;0.000;2023-04-30T15:27:50;19.00;92.80
56869;DHT22;42754;0.000;0.000;2023-04-30T15:30:16;18.80;93.20
56869;DHT22;42754;0.000;0.000;2023-04-30T15:32:42;18.80;93.40
56869;DHT22;42754;0.000;0.000;2023-04-30T15:35:08;19.10;93.30
56869;DHT22;42754;0.000;0.000;2023-04-30T15:37:35;19.60;93.00
56869;DHT22;42754;0.000;0.000;2023-04-30T15:40:00;19.60;92.70
56869;DHT22;42754;0.000;0.000;2023-04-30T15:42:26;19.60;93.50
56869;DHT22;42754;0.000;0.000;2023-04-30T15:44:51;19.70;92.90
56869;DHT22;42754;0.000;0.000;2023-04-30T15:47:17;19.50;92.60
56869;DHT22;42754;0.000;0.000;2023-04-30T15:49:43;19.10;92.60
56869;DHT22;42754;0.000;0.000;2023-04-30T15:52:08;18.80;92.80
56869;DHT22;42754;0.000;0.000;2023-04-30T15:54:34;18.40;93.10
56869;DHT22;42754;0.000;0.000;2023-04-30T15:57:00;18.40;93.70
56869;DHT22;42754;0.000;0.000;2023-04-30T15:59:29;18.30;93.80
56869;DHT22;42754;0.000;0.000;2023-04-30T16:01:55;18.10;94.20
56869;DHT22;42754;0.000;0.000;2023-04-30T16:04:21;18.00;94.10
56869;DHT22;42754;0.000;0.000;2023-04-30T16:06:47;17.90;94.50
56869;DHT22;42754;0.000;0.000;2023-04-30T16:09:12;17.90;94.20
56869;DHT22;42754;0.000;0.000;2023-04-30T16:11:44;18.00;94.60
56869;DHT22;42754;0.000;0.000;2023-04-30T16:14:09;17.90;94.30
56869;DHT22;42754;0.000;0.000;2023-04-30T16:16:36;18.00;94.30
56869;DHT22;42754;0.000;0.000;2023-04-30T16:19:02;18.30;94.10
56869;DHT22;42754;0.000;0.000;2023-04-30T16:21:27;18.20;94.00
56869;DHT22;42754;0.000;0.000;2023-04-30T16:23:53;18.40;94.10